Ana Sayfa
METAR-TAF:

METAR-TAF

Havaalanları :

Fayetteville, Kuzey Carolina, Amerika Birleşik Devletleri

Enlem: 34-59-22N, Boylam: 078-52-48W, yükseklik: 57 m

Güncel hava durumu gözlemi

Rapor saat 19:53 UTC de 55 dakika önce yapıldı.
Rüzgar kuzeybatıdan 6 kt ve 14 kt'a kadar ani rüzgarlar
Sıcaklık 37°C
Nem 31%
Basınç 1016 hPa
Görüş mesafesi: 16.1 km
8000 ft yükseklikte parçalı bulutlu

METAR: KFAY 241953Z 31006G14KT 10SM SCT080 37/17 A3001 RMK AO2 SLP156 T03720172

Saat: 16:48 (20:48 UTC)

Tahmin

Rapor saat 17:23 UTC de 3 saat ve 25 dakika önce yapıldı.
Ayın 24'si saat 18 UTC'den ayın 25'si saat 18 UTC'ye kadar geçerli Tahmin
Rüzgar batı/kuzeybatıdan 8 kt
Görüş mesafesi: 10 km
6000 ft yükseklikte az bulutlu
20000 ft yükseklikte parçalı bulutlu
Ayın 25'si saat 0000 UTC'den
Rüzgar kuzeybatıdan 5 kt
Görüş mesafesi: 10 km
20000 ft yükseklikte az bulutlu

TAF: KFAY 241723Z 2418/2518 29008KT P6SM FEW060 SCT200 FM250000 31005KT P6SM FEW200

4.000'den fazla havaalanı için hava durumu gözlemleri ve tahminleri (METAR ve TAF raporları).

Kullanılabilir istasyonlar harita üzerinde sarı ve kırmızı noktalarla gösterilir.

İstasyonun adını görmek için fareyi noktanın üzerinde gezdirin.

Sonrasında hava gözlem ve tahminlerini görmek için tıklayın.

Haritayı değiştirmek için: yaklaştırmak için siyah artı işaretli yeşil düğmeye ve uzaklaştırmak için de eksi işaretli düğmeye hızla tıklayın; bitişik haritalar için yeşil okları kullanın.


METAR-TAF: